createdAt,value
2019-03-05T00:01:48.231Z,4.80
2019-03-05T00:04:18.871Z,4.60
2019-03-05T00:06:50.487Z,4.43
2019-03-05T00:09:22.583Z,4.65
2019-03-05T00:11:53.648Z,4.13
2019-03-05T00:14:25.502Z,6.50
2019-03-05T00:16:56.795Z,4.70
2019-03-05T00:19:27.572Z,4.13
2019-03-05T00:21:57.955Z,3.67
2019-03-05T00:25:00.630Z,5.37
2019-03-05T00:27:36.187Z,4.23
2019-03-05T00:30:31.437Z,5.50
2019-03-05T00:33:24.260Z,4.93
2019-03-05T00:36:01.563Z,4.30
2019-03-05T00:38:50.992Z,4.47
2019-03-05T00:41:44.496Z,4.20
2019-03-05T00:45:11.502Z,4.08
2019-03-05T00:48:12.486Z,4.85
2019-03-05T00:51:03.603Z,5.77
2019-03-05T00:54:22.891Z,5.10
2019-03-05T00:57:05.700Z,5.13
2019-03-05T01:00:14.890Z,5.57
2019-03-05T01:03:17.293Z,8.47
2019-03-05T01:06:20.256Z,5.17
2019-03-05T01:08:50.998Z,6.00
2019-03-05T01:11:22.678Z,6.30
2019-03-05T01:13:54.854Z,4.17
2019-03-05T01:16:28.932Z,3.83
2019-03-05T01:18:59.705Z,3.77
2019-03-05T01:21:32.983Z,4.50
2019-03-05T01:24:03.711Z,4.73
2019-03-05T01:26:34.401Z,3.67
2019-03-05T01:29:05.519Z,6.50
2019-03-05T01:31:47.472Z,4.87
2019-03-05T01:34:27.506Z,3.70
2019-03-05T01:36:59.934Z,5.07
2019-03-05T01:39:44.943Z,3.37
2019-03-05T01:42:21.109Z,2.80
2019-03-05T01:44:51.664Z,2.50
2019-03-05T01:47:22.757Z,3.08
2019-03-05T01:49:53.394Z,3.70
2019-03-05T01:52:24.868Z,4.17
2019-03-05T01:54:55.484Z,3.97
2019-03-05T01:57:25.872Z,4.60
2019-03-05T01:59:56.407Z,4.83
2019-03-05T02:02:27.547Z,5.30
2019-03-05T02:04:58.409Z,4.87
2019-03-05T02:07:29.521Z,5.87
2019-03-05T02:10:01.417Z,5.53
2019-03-05T02:12:32.040Z,5.10
2019-03-05T02:15:02.576Z,5.37
2019-03-05T02:17:34.203Z,5.23
2019-03-05T02:20:05.991Z,4.90
2019-03-05T02:22:45.991Z,5.33
2019-03-05T02:25:39.829Z,6.00
2019-03-05T02:28:54.800Z,5.42
2019-03-05T02:31:42.587Z,4.93
2019-03-05T02:34:42.911Z,6.10
2019-03-05T02:37:42.320Z,6.30
2019-03-05T02:40:23.777Z,6.07
2019-03-05T02:43:10.664Z,6.93
2019-03-05T02:46:10.807Z,6.77
2019-03-05T02:49:37.413Z,5.57
2019-03-05T02:52:31.762Z,5.50
2019-03-05T02:55:29.530Z,5.40
2019-03-05T02:57:58.468Z,5.80
2019-03-05T03:00:47.303Z,6.00
2019-03-05T03:03:25.214Z,5.40
2019-03-05T03:06:14.845Z,4.60
2019-03-05T03:08:45.537Z,5.70
2019-03-05T03:11:16.119Z,5.20
2019-03-05T03:13:46.946Z,6.60
2019-03-05T03:16:18.370Z,6.60
2019-03-05T03:18:48.733Z,7.60
2019-03-05T03:21:19.403Z,6.40
2019-03-05T03:23:49.818Z,5.67
2019-03-05T03:26:20.360Z,6.30
2019-03-05T03:28:51.384Z,7.67
2019-03-05T03:31:22.111Z,6.83
2019-03-05T03:33:52.659Z,9.10
2019-03-05T03:36:23.143Z,6.50
2019-03-05T03:38:55.319Z,8.13
2019-03-05T03:41:26.093Z,7.83
2019-03-05T03:43:57.286Z,8.57
2019-03-05T03:46:27.796Z,8.10
2019-03-05T03:48:59.378Z,8.10
2019-03-05T03:51:30.278Z,10.73
2019-03-05T03:54:00.817Z,7.33
2019-03-05T03:56:31.276Z,7.40
2019-03-05T03:59:01.764Z,7.83
2019-03-05T04:01:32.712Z,7.20
2019-03-05T04:04:03.605Z,6.53
2019-03-05T04:06:37.276Z,7.17
2019-03-05T04:09:11.968Z,5.67
2019-03-05T04:11:43.038Z,6.00
2019-03-05T04:14:13.690Z,5.57
2019-03-05T04:16:44.126Z,7.80
2019-03-05T04:19:16.914Z,6.63
2019-03-05T04:21:47.615Z,5.33
2019-03-05T04:24:20.511Z,5.87
2019-03-05T04:26:51.048Z,8.53
2019-03-05T04:29:22.470Z,8.93
2019-03-05T04:31:53.185Z,6.03
2019-03-05T04:34:24.731Z,5.93
2019-03-05T04:36:55.057Z,6.77
2019-03-05T04:39:25.602Z,6.87
2019-03-05T04:41:57.507Z,7.00
2019-03-05T04:44:37.747Z,9.35
2019-03-05T04:47:09.689Z,8.87
2019-03-05T04:49:45.198Z,6.87
2019-03-05T04:52:18.096Z,8.73
2019-03-05T04:54:49.619Z,7.00
2019-03-05T04:57:20.172Z,6.70
2019-03-05T04:59:50.663Z,7.77
2019-03-05T05:02:21.030Z,7.95
2019-03-05T05:04:51.352Z,7.37
2019-03-05T05:07:23.344Z,6.65
2019-03-05T05:09:53.669Z,6.67
2019-03-05T05:12:24.224Z,7.20
2019-03-05T05:14:54.773Z,6.80
2019-03-05T05:17:25.158Z,7.80
2019-03-05T05:19:55.584Z,7.27
2019-03-05T05:22:26.542Z,7.65
2019-03-05T05:24:56.927Z,8.37
2019-03-05T05:27:29.283Z,7.87
2019-03-05T05:29:59.959Z,7.80
2019-03-05T05:32:30.492Z,8.33
2019-03-05T05:35:01.308Z,7.60
2019-03-05T05:37:32.354Z,8.33
2019-03-05T05:40:40.630Z,9.33
2019-03-05T05:43:13.953Z,9.60
2019-03-05T05:45:46.715Z,10.13
2019-03-05T05:48:20.752Z,10.30
2019-03-05T05:50:51.548Z,9.90
2019-03-05T05:53:22.234Z,9.00
2019-03-05T05:55:52.751Z,9.10
2019-03-05T05:58:25.508Z,8.90
2019-03-05T06:00:59.407Z,8.27
2019-03-05T06:03:30.121Z,8.50
2019-03-05T06:06:01.083Z,8.27
2019-03-05T06:08:31.780Z,7.67
2019-03-05T06:11:02.802Z,7.60
2019-03-05T06:13:33.592Z,8.03
2019-03-05T06:16:04.324Z,8.43
2019-03-05T06:18:35.097Z,7.97
2019-03-05T06:21:06.602Z,7.63
2019-03-05T06:23:37.501Z,7.43
2019-03-05T06:26:08.979Z,7.37
2019-03-05T06:28:40.308Z,7.03
2019-03-05T06:31:10.711Z,7.13
2019-03-05T06:33:42.343Z,7.17
2019-03-05T06:36:12.704Z,6.93
2019-03-05T06:38:43.196Z,7.00
2019-03-05T06:41:13.875Z,7.97
2019-03-05T06:43:44.361Z,7.13
2019-03-05T06:46:14.985Z,7.83
2019-03-05T06:48:45.570Z,6.80
2019-03-05T06:51:16.111Z,7.83
2019-03-05T06:53:46.812Z,5.83
2019-03-05T06:56:17.522Z,7.10
2019-03-05T06:58:47.971Z,5.27
2019-03-05T07:01:19.479Z,6.85
2019-03-05T07:03:50.400Z,5.50
2019-03-05T07:06:58.784Z,6.83
2019-03-05T07:09:45.685Z,4.60
2019-03-05T07:12:59.092Z,5.25
2019-03-05T07:15:53.713Z,4.85
2019-03-05T07:18:34.074Z,7.50
2019-03-05T07:21:47.437Z,4.67
2019-03-05T07:24:45.619Z,4.03
2019-03-05T07:27:21.889Z,4.87
2019-03-05T07:29:52.358Z,4.17
2019-03-05T07:32:22.717Z,4.20
2019-03-05T07:34:53.264Z,4.27
2019-03-05T07:37:23.591Z,4.53
2019-03-05T07:39:53.997Z,4.60
2019-03-05T07:42:24.435Z,4.45
2019-03-05T07:44:54.889Z,4.17
2019-03-05T07:47:28.085Z,3.50
2019-03-05T07:49:58.497Z,5.03
2019-03-05T07:52:28.813Z,3.23
2019-03-05T07:54:59.178Z,3.40
2019-03-05T07:57:29.563Z,4.23
2019-03-05T08:00:00.191Z,4.67
2019-03-05T08:02:30.891Z,3.87
2019-03-05T08:05:01.745Z,3.90
2019-03-05T08:07:32.307Z,4.63
2019-03-05T08:10:10.374Z,4.57
2019-03-05T08:13:22.490Z,3.53
2019-03-05T08:16:24.275Z,3.43
2019-03-05T08:18:54.866Z,4.20
2019-03-05T08:21:25.320Z,3.77
2019-03-05T08:23:56.185Z,3.03
2019-03-05T08:26:26.568Z,3.30
2019-03-05T08:28:57.062Z,2.93
2019-03-05T08:31:28.397Z,2.93
2019-03-05T08:33:58.759Z,2.45
2019-03-05T08:36:29.195Z,3.00
2019-03-05T08:38:59.634Z,3.20
2019-03-05T08:41:30.527Z,2.83
2019-03-05T08:44:01.535Z,3.20
2019-03-05T08:46:32.084Z,4.70
2019-03-05T08:49:02.599Z,3.17
2019-03-05T08:51:33.066Z,3.10
2019-03-05T08:54:03.739Z,2.80
2019-03-05T08:56:34.310Z,3.50
2019-03-05T08:59:05.270Z,2.98
2019-03-05T09:01:35.784Z,2.93
2019-03-05T09:04:06.113Z,2.50
2019-03-05T09:06:36.588Z,3.57
2019-03-05T09:09:09.930Z,4.60
2019-03-05T09:11:42.004Z,3.43
2019-03-05T09:14:12.379Z,3.70
2019-03-05T09:16:42.749Z,2.93
2019-03-05T09:19:13.087Z,2.80
2019-03-05T09:21:43.587Z,2.63
2019-03-05T09:24:13.989Z,3.33
2019-03-05T09:26:51.304Z,3.03
2019-03-05T09:29:16.471Z,4.37
2019-03-05T09:31:46.823Z,5.20
2019-03-05T09:34:17.203Z,3.33
2019-03-05T09:36:51.255Z,2.17
2019-03-05T09:39:20.000Z,3.37
2019-03-05T09:41:50.405Z,2.12
2019-03-05T09:44:20.819Z,3.85
2019-03-05T09:46:51.381Z,3.20
2019-03-05T09:49:22.344Z,2.22
2019-03-05T09:51:52.691Z,2.50
2019-03-05T09:54:23.244Z,2.70
2019-03-05T09:56:53.775Z,2.02
2019-03-05T09:59:24.695Z,2.33
2019-03-05T10:01:56.246Z,2.20
2019-03-05T10:04:26.898Z,2.20
2019-03-05T10:06:57.472Z,2.20
2019-03-05T10:09:29.451Z,2.27
2019-03-05T10:12:00.572Z,2.37
2019-03-05T10:14:31.102Z,1.73
2019-03-05T10:17:02.221Z,1.97
2019-03-05T10:19:32.927Z,3.73
2019-03-05T10:22:05.491Z,1.97
2019-03-05T10:24:36.333Z,2.50
2019-03-05T10:27:07.162Z,1.97
2019-03-05T10:29:38.639Z,1.60
2019-03-05T10:32:09.379Z,2.30
2019-03-05T10:34:40.580Z,3.47
2019-03-05T10:37:16.930Z,1.67
2019-03-05T10:39:43.322Z,1.60
2019-03-05T10:42:13.855Z,1.90
2019-03-05T10:44:44.639Z,1.93
2019-03-05T10:47:15.137Z,2.10
2019-03-05T10:49:45.688Z,1.70
2019-03-05T10:52:17.127Z,1.60
2019-03-05T10:54:47.702Z,3.90
2019-03-05T10:57:18.724Z,1.80
2019-03-05T10:59:50.290Z,2.50
2019-03-05T11:02:21.537Z,2.30
2019-03-05T11:04:52.507Z,2.77
2019-03-05T11:07:23.261Z,3.83
2019-03-05T11:09:55.177Z,2.08
2019-03-05T11:12:26.662Z,2.20
2019-03-05T11:14:57.151Z,3.37
2019-03-05T11:17:27.951Z,2.80
2019-03-05T11:19:58.392Z,2.20
2019-03-05T11:22:28.760Z,2.80
2019-03-05T11:24:59.314Z,2.73
2019-03-05T11:27:29.760Z,4.53
2019-03-05T11:30:00.649Z,2.43
2019-03-05T11:32:31.237Z,3.53
2019-03-05T11:35:03.106Z,2.50
2019-03-05T11:37:33.743Z,1.93
2019-03-05T11:40:04.270Z,1.70
2019-03-05T11:42:34.949Z,3.23
2019-03-05T11:45:10.648Z,2.60
2019-03-05T11:47:40.315Z,1.93
2019-03-05T11:50:11.373Z,2.22
2019-03-05T11:52:42.148Z,2.30
2019-03-05T11:55:14.580Z,2.00
2019-03-05T11:57:45.195Z,2.10
2019-03-05T12:00:20.525Z,2.17
2019-03-05T12:02:51.371Z,2.13
2019-03-05T12:05:21.913Z,2.25
2019-03-05T12:07:55.199Z,3.63
2019-03-05T12:10:26.124Z,2.17
2019-03-05T12:12:58.112Z,2.17
2019-03-05T12:15:29.055Z,2.27
2019-03-05T12:17:59.538Z,1.63
2019-03-05T12:20:29.983Z,4.20
2019-03-05T12:23:02.300Z,3.07
2019-03-05T12:25:36.087Z,4.93
2019-03-05T12:28:10.240Z,2.10
2019-03-05T12:30:38.776Z,1.97
2019-03-05T12:33:09.340Z,3.40
2019-03-05T12:35:40.053Z,2.80
2019-03-05T12:38:10.940Z,4.17
2019-03-05T12:40:41.566Z,3.30
2019-03-05T12:43:12.273Z,2.30
2019-03-05T12:45:42.777Z,4.73
2019-03-05T12:48:13.256Z,4.10
2019-03-05T12:50:44.860Z,2.00
2019-03-05T12:53:16.120Z,2.12
2019-03-05T12:55:46.939Z,2.37
2019-03-05T12:58:17.293Z,3.00
2019-03-05T13:00:48.989Z,4.33
2019-03-05T13:03:19.679Z,2.50
2019-03-05T13:05:50.322Z,2.10
2019-03-05T13:08:20.872Z,2.63
2019-03-05T13:10:51.631Z,2.17
2019-03-05T13:13:22.630Z,3.03
2019-03-05T13:15:56.497Z,2.67
2019-03-05T13:18:26.741Z,4.23
2019-03-05T13:20:57.634Z,2.90
2019-03-05T13:23:28.073Z,6.00
2019-03-05T13:25:58.641Z,3.60
2019-03-05T13:28:29.052Z,3.33
2019-03-05T13:31:00.424Z,3.60
2019-03-05T13:33:33.521Z,3.47
2019-03-05T13:36:05.127Z,4.37
2019-03-05T13:38:37.463Z,2.80
2019-03-05T13:41:07.946Z,2.97
2019-03-05T13:43:38.389Z,2.60
2019-03-05T13:46:08.963Z,3.43
2019-03-05T13:49:19.395Z,4.03
2019-03-05T13:52:16.312Z,3.20
2019-03-05T13:55:14.936Z,3.87
2019-03-05T13:58:31.655Z,3.67
2019-03-05T14:01:02.956Z,3.57
2019-03-05T14:03:45.417Z,4.50
2019-03-05T14:06:55.972Z,2.40
2019-03-05T14:09:24.787Z,3.23
2019-03-05T14:11:55.879Z,2.27
2019-03-05T14:14:34.517Z,2.00
2019-03-05T14:17:27.194Z,2.67
2019-03-05T14:19:57.579Z,3.20
2019-03-05T14:22:28.359Z,2.17
2019-03-05T14:25:02.395Z,2.73
2019-03-05T14:27:31.289Z,2.50
2019-03-05T14:30:03.074Z,4.67
2019-03-05T14:32:35.870Z,3.87
2019-03-05T14:35:11.063Z,2.80
2019-03-05T14:37:41.927Z,3.57
2019-03-05T14:40:24.181Z,3.92
2019-03-05T14:42:49.067Z,5.33
2019-03-05T14:45:22.381Z,4.55
2019-03-05T14:47:54.208Z,4.40
2019-03-05T14:50:24.969Z,4.40
2019-03-05T14:52:55.728Z,4.20
2019-03-05T14:55:27.625Z,4.10
2019-03-05T14:57:58.251Z,4.53
2019-03-05T15:00:29.198Z,4.07
2019-03-05T15:02:59.787Z,4.30
2019-03-05T15:05:30.400Z,4.87
2019-03-05T15:08:00.977Z,4.03
2019-03-05T15:10:32.224Z,3.93
2019-03-05T15:13:15.400Z,5.40
2019-03-05T15:15:36.195Z,4.10
2019-03-05T15:18:06.700Z,4.27
2019-03-05T15:20:37.251Z,4.70
2019-03-05T15:23:07.575Z,6.83
2019-03-05T15:25:39.152Z,4.23
2019-03-05T15:28:09.689Z,4.53
2019-03-05T15:30:40.356Z,4.63
2019-03-05T15:33:11.051Z,6.80
2019-03-05T15:35:42.427Z,5.13
2019-03-05T15:38:13.236Z,4.53
2019-03-05T15:40:43.832Z,5.20
2019-03-05T15:43:14.716Z,5.62
2019-03-05T15:45:45.291Z,5.97
2019-03-05T15:48:15.867Z,5.40
2019-03-05T15:50:46.347Z,6.37
2019-03-05T15:53:17.106Z,5.60
2019-03-05T15:55:47.416Z,7.33
2019-03-05T15:58:17.874Z,7.07
2019-03-05T16:00:48.391Z,5.83
2019-03-05T16:03:18.859Z,7.63
2019-03-05T16:05:49.331Z,6.03
2019-03-05T16:08:20.906Z,6.28
2019-03-05T16:10:54.657Z,7.00
2019-03-05T16:13:24.567Z,7.03
2019-03-05T16:15:55.100Z,7.13
2019-03-05T16:18:25.447Z,7.92
2019-03-05T16:20:58.251Z,8.10
2019-03-05T16:23:28.597Z,9.03
2019-03-05T16:25:59.731Z,8.03
2019-03-05T16:28:30.457Z,10.17
2019-03-05T16:31:17.325Z,9.43
2019-03-05T16:34:05.434Z,11.67
2019-03-05T16:36:51.441Z,7.83
2019-03-05T16:39:36.746Z,7.87
2019-03-05T16:42:46.378Z,9.53
2019-03-05T16:45:34.267Z,8.37
2019-03-05T16:48:20.869Z,7.90
2019-03-05T16:51:22.623Z,8.57
2019-03-05T16:54:12.141Z,11.53
2019-03-05T16:56:52.673Z,8.40
2019-03-05T16:59:53.248Z,7.90
2019-03-05T17:02:59.296Z,9.37
2019-03-05T17:05:43.191Z,8.83
2019-03-05T17:08:35.790Z,8.00
2019-03-05T17:11:23.929Z,9.37
2019-03-05T17:13:56.106Z,9.23
2019-03-05T17:16:27.902Z,8.53
2019-03-05T17:18:59.587Z,8.53
2019-03-05T17:21:30.110Z,8.10
2019-03-05T17:24:01.789Z,8.43
2019-03-05T17:26:32.864Z,7.80
2019-03-05T17:29:03.675Z,10.43
2019-03-05T17:31:36.001Z,7.87
2019-03-05T17:34:06.525Z,7.30
2019-03-05T17:36:37.307Z,10.00
2019-03-05T17:39:11.866Z,8.57
2019-03-05T17:41:43.336Z,10.90
2019-03-05T17:44:14.029Z,11.75
2019-03-05T17:46:45.461Z,7.30
2019-03-05T17:49:16.016Z,11.75
2019-03-05T17:51:46.562Z,9.40
2019-03-05T17:54:17.449Z,9.23
2019-03-05T17:56:47.950Z,10.97
2019-03-05T17:59:18.608Z,11.08
2019-03-05T18:01:49.133Z,9.50
2019-03-05T18:04:19.743Z,10.93
2019-03-05T18:06:50.232Z,12.17
2019-03-05T18:09:21.358Z,10.05
2019-03-05T18:11:51.846Z,8.70
2019-03-05T18:14:22.537Z,10.32
2019-03-05T18:16:53.064Z,9.97
2019-03-05T18:19:23.742Z,11.50
2019-03-05T18:21:54.259Z,11.63
2019-03-05T18:24:24.798Z,12.67
2019-03-05T18:26:55.328Z,11.07
2019-03-05T18:29:25.883Z,12.93
2019-03-05T18:31:56.383Z,12.83
2019-03-05T18:34:26.936Z,11.60
2019-03-05T18:36:57.418Z,12.00
2019-03-05T18:39:27.867Z,14.03
2019-03-05T18:41:59.265Z,14.70
2019-03-05T18:44:29.965Z,11.53
2019-03-05T18:47:00.987Z,8.17
2019-03-05T18:49:31.387Z,7.20
2019-03-05T18:52:01.872Z,7.20
2019-03-05T18:54:32.790Z,6.17
2019-03-05T18:57:03.238Z,7.90
2019-03-05T18:59:33.760Z,6.30
2019-03-05T19:02:04.721Z,5.97
2019-03-05T19:04:35.309Z,7.20
2019-03-05T19:07:05.703Z,5.83
2019-03-05T19:09:36.173Z,6.80
2019-03-05T19:12:06.940Z,6.90
2019-03-05T19:14:37.436Z,7.10
2019-03-05T19:17:07.908Z,5.97
2019-03-05T19:19:38.447Z,6.43
2019-03-05T19:22:08.980Z,5.07
2019-03-05T19:24:39.503Z,5.57
2019-03-05T19:27:10.054Z,5.40
2019-03-05T19:29:40.462Z,6.37
2019-03-05T19:32:10.891Z,6.33
2019-03-05T19:34:42.538Z,6.17
2019-03-05T19:37:13.989Z,7.33
2019-03-05T19:39:44.491Z,6.90
2019-03-05T19:42:15.006Z,5.87
2019-03-05T19:44:45.461Z,5.83
2019-03-05T19:47:15.890Z,5.30
2019-03-05T19:49:46.298Z,5.60
2019-03-05T19:52:16.825Z,6.05
2019-03-05T19:54:47.255Z,6.03
2019-03-05T19:57:17.650Z,6.15
2019-03-05T19:59:48.245Z,5.60
2019-03-05T20:02:18.855Z,4.95
2019-03-05T20:04:49.313Z,5.63
2019-03-05T20:07:19.934Z,6.10
2019-03-05T20:09:50.443Z,6.80
2019-03-05T20:12:20.887Z,6.70
2019-03-05T20:14:51.374Z,7.60
2019-03-05T20:17:21.768Z,7.20
2019-03-05T20:19:52.144Z,7.70
2019-03-05T20:22:22.568Z,6.67
2019-03-05T20:24:53.073Z,7.70
2019-03-05T20:27:23.533Z,8.73
2019-03-05T20:29:54.168Z,8.00
2019-03-05T20:32:24.915Z,8.63
2019-03-05T20:34:55.644Z,8.67
2019-03-05T20:37:27.528Z,7.83
2019-03-05T20:39:58.081Z,6.07
2019-03-05T20:42:28.498Z,6.20
2019-03-05T20:44:59.025Z,6.30
2019-03-05T20:47:29.429Z,5.93
2019-03-05T20:49:59.886Z,6.03
2019-03-05T20:52:30.469Z,7.17
2019-03-05T20:55:01.200Z,7.33
2019-03-05T20:57:33.201Z,8.97
2019-03-05T21:00:03.814Z,7.93
2019-03-05T21:02:34.992Z,8.63
2019-03-05T21:05:05.655Z,7.90
2019-03-05T21:07:36.271Z,8.60
2019-03-05T21:10:07.570Z,8.73
2019-03-05T21:12:38.181Z,7.70
2019-03-05T21:15:09.386Z,8.63
2019-03-05T21:17:40.064Z,9.87
2019-03-05T21:20:11.656Z,9.20
2019-03-05T21:22:42.703Z,9.40
2019-03-05T21:25:13.509Z,11.37
2019-03-05T21:27:44.096Z,10.33
2019-03-05T21:30:19.242Z,10.65
2019-03-05T21:32:50.127Z,11.00
2019-03-05T21:35:21.432Z,11.38
2019-03-05T21:37:51.921Z,11.57
2019-03-05T21:40:23.661Z,11.40
2019-03-05T21:42:54.168Z,11.83
2019-03-05T21:45:27.653Z,12.30
2019-03-05T21:47:58.078Z,12.97
2019-03-05T21:50:28.615Z,13.83
2019-03-05T21:52:59.022Z,13.37
2019-03-05T21:55:29.391Z,14.03
2019-03-05T21:57:59.800Z,13.10
2019-03-05T22:00:31.193Z,14.30
2019-03-05T22:03:01.747Z,14.73
2019-03-05T22:05:32.246Z,15.23
2019-03-05T22:08:02.683Z,16.00
2019-03-05T22:10:33.240Z,15.63
2019-03-05T22:13:03.587Z,16.45
2019-03-05T22:15:34.144Z,16.10
2019-03-05T22:18:04.606Z,17.47
2019-03-05T22:20:35.705Z,16.50
2019-03-05T22:23:07.447Z,17.20
2019-03-05T22:25:38.002Z,16.30
2019-03-05T22:28:08.456Z,17.23
2019-03-05T22:30:39.673Z,17.37
2019-03-05T22:33:10.698Z,18.52
2019-03-05T22:35:41.580Z,18.87
2019-03-05T22:38:12.018Z,19.33
2019-03-05T22:40:43.020Z,20.13
2019-03-05T22:43:13.508Z,19.70
2019-03-05T22:45:44.097Z,20.30
2019-03-05T22:48:14.575Z,19.77
2019-03-05T22:50:45.052Z,20.33
2019-03-05T22:53:15.757Z,21.05
2019-03-05T22:55:46.288Z,19.07
2019-03-05T22:58:16.812Z,19.65
2019-03-05T23:01:10.867Z,20.60
2019-03-05T23:04:03.233Z,20.57
2019-03-05T23:06:34.069Z,20.13
2019-03-05T23:09:08.254Z,21.03
2019-03-05T23:11:41.924Z,21.13
2019-03-05T23:14:12.367Z,21.80
2019-03-05T23:16:43.948Z,21.90
2019-03-05T23:19:17.436Z,21.12
2019-03-05T23:21:47.959Z,21.60
2019-03-05T23:24:18.505Z,21.05
2019-03-05T23:26:49.400Z,21.87
2019-03-05T23:29:26.230Z,21.27
2019-03-05T23:31:57.794Z,22.37
2019-03-05T23:34:30.590Z,23.87
2019-03-05T23:37:01.921Z,23.20
2019-03-05T23:39:32.401Z,22.37
2019-03-05T23:42:03.653Z,24.00
2019-03-05T23:44:34.244Z,23.30
2019-03-05T23:47:05.690Z,23.80
2019-03-05T23:49:36.195Z,24.83
2019-03-05T23:52:06.939Z,26.57
2019-03-05T23:54:37.785Z,21.93
2019-03-05T23:57:09.277Z,21.63
2019-03-05T23:59:41.513Z,20.27
